< Cyclone 197808 1978 Season Cyclone 197901 >
Cyclone 197809 (HAL)
General InformationTrack Information on Google MapsDetailed Wind Information || ResourceGoogle EarthGE AnimationAtom FeedGeoJSON
Detalied Best Track (Time Zone = UTC)
Year Month Day Hour Lat. Long. Pressure (hPa) Wind (kt) Class Image Chart
1978 4 4 12 -11.3 136.5 1006 20 2 -- --
1978 4 4 18 -11.2 136.3 1005 25 2 -- --
1978 4 5 00 -11.7 136.7 1005 25 2 -- --
1978 4 5 06 -12.4 136.8 1004 25 2 -- --
1978 4 5 12 -12.4 137.3 1003 25 2 -- --
1978 4 5 18 -12.0 137.5 996 35 3 -- --
1978 4 6 00 -11.9 137.8 995 40 3 -- --
1978 4 6 06 -12.1 138.2 995 40 3 -- --
1978 4 6 12 -12.1 139.0 992 40 3 -- --
1978 4 6 14 -12.2 139.5 988 50 4 -- --
1978 4 6 17 -12.4 140.0 985 50 4 -- --
1978 4 6 23 -13.0 140.7 985 50 4 -- --
1978 4 7 05 -13.8 141.4 992 45 3 -- --
1978 4 7 11 -14.5 142.3 998 35 3 -- --
1978 4 7 17 -15.0 144.0 1000 30 2 -- --
1978 4 7 23 -15.5 146.2 998 30 2 -- --
1978 4 8 05 -16.0 147.3 998 30 2 -- --
1978 4 8 11 -16.6 147.9 1000 30 2 -- --
1978 4 8 14 -17.0 148.1 999 30 2 -- --
1978 4 8 17 -17.2 148.5 998 30 2 -- --
1978 4 8 20 -17.1 148.3 999 30 2 -- --
1978 4 8 23 -17.3 148.3 999 30 2 -- --
1978 4 9 05 -17.4 149.4 994 30 2 -- --
1978 4 9 11 -17.4 150.5 998 30 2 -- --
1978 4 9 17 -17.4 151.3 997 30 2 -- --
1978 4 9 23 -17.4 151.9 1000 30 2 -- --
1978 4 10 05 -17.4 152.5 999 30 2 -- --
1978 4 10 11 -17.6 153.1 1001 30 2 -- --
1978 4 10 17 -17.8 153.7 999 30 2 -- --
1978 4 10 23 -18.1 154.0 998 30 2 -- --
1978 4 11 05 -18.7 154.0 998 30 2 -- --
1978 4 11 11 -19.5 153.8 1000 30 2 -- --
1978 4 11 17 -20.3 153.8 999 30 2 -- --
1978 4 11 23 -20.9 154.0 1001 25 2 -- --
< Cyclone 197808 1978 Season Cyclone 197901 >

Help